sensor_id;sensor_type;location;lat;lon;timestamp;P1;durP1;ratioP1;P2;durP2;ratioP2
13208;SDS011;6669;42.678;23.332;2023-05-10T00:00:31;3.80;;;3.50;;
13208;SDS011;6669;42.678;23.332;2023-05-10T00:03:00;4.10;;;3.70;;
13208;SDS011;6669;42.678;23.332;2023-05-10T00:05:28;4.33;;;3.90;;
13208;SDS011;6669;42.678;23.332;2023-05-10T00:07:57;4.60;;;4.20;;
13208;SDS011;6669;42.678;23.332;2023-05-10T00:10:25;4.43;;;4.03;;
13208;SDS011;6669;42.678;23.332;2023-05-10T00:12:53;4.60;;;4.20;;
13208;SDS011;6669;42.678;23.332;2023-05-10T00:15:21;5.03;;;4.53;;
13208;SDS011;6669;42.678;23.332;2023-05-10T00:17:49;5.37;;;4.60;;
13208;SDS011;6669;42.678;23.332;2023-05-10T00:20:17;5.70;;;4.70;;
13208;SDS011;6669;42.678;23.332;2023-05-10T00:22:45;5.20;;;4.70;;
13208;SDS011;6669;42.678;23.332;2023-05-10T00:25:15;4.93;;;4.53;;
13208;SDS011;6669;42.678;23.332;2023-05-10T00:27:44;5.73;;;5.23;;
13208;SDS011;6669;42.678;23.332;2023-05-10T00:30:13;4.90;;;4.50;;
13208;SDS011;6669;42.678;23.332;2023-05-10T00:32:41;5.13;;;4.63;;
13208;SDS011;6669;42.678;23.332;2023-05-10T00:35:09;5.40;;;4.90;;
13208;SDS011;6669;42.678;23.332;2023-05-10T00:37:37;5.60;;;5.10;;
13208;SDS011;6669;42.678;23.332;2023-05-10T00:40:06;5.40;;;4.90;;
13208;SDS011;6669;42.678;23.332;2023-05-10T00:42:36;5.70;;;5.13;;
13208;SDS011;6669;42.678;23.332;2023-05-10T00:45:04;5.70;;;5.00;;
13208;SDS011;6669;42.678;23.332;2023-05-10T00:47:33;6.00;;;5.47;;
13208;SDS011;6669;42.678;23.332;2023-05-10T00:50:02;6.13;;;5.53;;
13208;SDS011;6669;42.678;23.332;2023-05-10T00:52:30;5.60;;;5.10;;
13208;SDS011;6669;42.678;23.332;2023-05-10T00:54:59;5.53;;;5.03;;
13208;SDS011;6669;42.678;23.332;2023-05-10T00:57:27;5.97;;;5.47;;
13208;SDS011;6669;42.678;23.332;2023-05-10T00:59:58;6.97;;;5.77;;
13208;SDS011;6669;42.678;23.332;2023-05-10T01:02:26;6.07;;;5.47;;
13208;SDS011;6669;42.678;23.332;2023-05-10T01:04:55;6.60;;;5.90;;
13208;SDS011;6669;42.678;23.332;2023-05-10T01:07:23;6.80;;;6.20;;
13208;SDS011;6669;42.678;23.332;2023-05-10T01:09:51;6.17;;;5.57;;
13208;SDS011;6669;42.678;23.332;2023-05-10T01:12:19;6.20;;;5.70;;
13208;SDS011;6669;42.678;23.332;2023-05-10T01:14:47;6.07;;;5.47;;
13208;SDS011;6669;42.678;23.332;2023-05-10T01:17:19;6.60;;;5.80;;
13208;SDS011;6669;42.678;23.332;2023-05-10T01:19:49;6.73;;;6.13;;
13208;SDS011;6669;42.678;23.332;2023-05-10T01:22:26;6.53;;;5.87;;
13208;SDS011;6669;42.678;23.332;2023-05-10T01:25:11;6.37;;;5.77;;
13208;SDS011;6669;42.678;23.332;2023-05-10T01:27:57;6.30;;;5.70;;
13208;SDS011;6669;42.678;23.332;2023-05-10T01:30:56;6.17;;;5.67;;
13208;SDS011;6669;42.678;23.332;2023-05-10T01:33:39;5.10;;;4.70;;
13208;SDS011;6669;42.678;23.332;2023-05-10T01:36:15;5.50;;;5.00;;
13208;SDS011;6669;42.678;23.332;2023-05-10T01:38:53;6.40;;;5.80;;
13208;SDS011;6669;42.678;23.332;2023-05-10T01:41:36;5.03;;;4.63;;
13208;SDS011;6669;42.678;23.332;2023-05-10T01:44:15;5.27;;;4.87;;
13208;SDS011;6669;42.678;23.332;2023-05-10T01:46:47;5.07;;;4.67;;
13208;SDS011;6669;42.678;23.332;2023-05-10T01:49:23;5.07;;;4.67;;
13208;SDS011;6669;42.678;23.332;2023-05-10T01:51:54;4.57;;;4.17;;
13208;SDS011;6669;42.678;23.332;2023-05-10T01:54:28;3.80;;;3.50;;
13208;SDS011;6669;42.678;23.332;2023-05-10T01:56:58;4.40;;;4.00;;
13208;SDS011;6669;42.678;23.332;2023-05-10T01:59:30;4.60;;;4.20;;
13208;SDS011;6669;42.678;23.332;2023-05-10T02:02:05;4.33;;;3.93;;
13208;SDS011;6669;42.678;23.332;2023-05-10T02:04:36;3.93;;;3.63;;
13208;SDS011;6669;42.678;23.332;2023-05-10T02:07:06;3.63;;;3.33;;
13208;SDS011;6669;42.678;23.332;2023-05-10T02:09:36;3.97;;;3.67;;
13208;SDS011;6669;42.678;23.332;2023-05-10T02:12:05;3.93;;;3.57;;
13208;SDS011;6669;42.678;23.332;2023-05-10T02:14:35;3.90;;;3.60;;
13208;SDS011;6669;42.678;23.332;2023-05-10T02:17:04;3.87;;;3.57;;
13208;SDS011;6669;42.678;23.332;2023-05-10T02:19:38;3.77;;;3.47;;
13208;SDS011;6669;42.678;23.332;2023-05-10T02:22:09;3.47;;;3.17;;
13208;SDS011;6669;42.678;23.332;2023-05-10T02:24:37;3.70;;;3.40;;
13208;SDS011;6669;42.678;23.332;2023-05-10T02:27:07;8.10;;;4.87;;
13208;SDS011;6669;42.678;23.332;2023-05-10T02:29:37;5.90;;;3.47;;
13208;SDS011;6669;42.678;23.332;2023-05-10T02:32:06;3.63;;;3.13;;
13208;SDS011;6669;42.678;23.332;2023-05-10T02:34:34;3.53;;;3.17;;
13208;SDS011;6669;42.678;23.332;2023-05-10T02:37:05;3.40;;;3.10;;
13208;SDS011;6669;42.678;23.332;2023-05-10T02:39:34;3.67;;;3.37;;
13208;SDS011;6669;42.678;23.332;2023-05-10T02:42:02;3.43;;;3.10;;
13208;SDS011;6669;42.678;23.332;2023-05-10T02:44:32;3.40;;;3.10;;
13208;SDS011;6669;42.678;23.332;2023-05-10T02:47:02;3.53;;;2.90;;
13208;SDS011;6669;42.678;23.332;2023-05-10T02:49:30;4.97;;;2.90;;
13208;SDS011;6669;42.678;23.332;2023-05-10T02:52:00;3.23;;;2.93;;
13208;SDS011;6669;42.678;23.332;2023-05-10T02:54:33;3.20;;;2.90;;
13208;SDS011;6669;42.678;23.332;2023-05-10T02:57:09;3.90;;;3.50;;
13208;SDS011;6669;42.678;23.332;2023-05-10T02:59:44;3.93;;;3.17;;
13208;SDS011;6669;42.678;23.332;2023-05-10T03:02:12;3.63;;;3.33;;
13208;SDS011;6669;42.678;23.332;2023-05-10T03:04:40;3.87;;;3.47;;
13208;SDS011;6669;42.678;23.332;2023-05-10T03:07:10;3.40;;;3.10;;
13208;SDS011;6669;42.678;23.332;2023-05-10T03:09:38;3.77;;;3.47;;
13208;SDS011;6669;42.678;23.332;2023-05-10T03:12:07;4.13;;;3.70;;
13208;SDS011;6669;42.678;23.332;2023-05-10T03:14:42;3.77;;;3.30;;
13208;SDS011;6669;42.678;23.332;2023-05-10T03:17:22;4.17;;;3.00;;
13208;SDS011;6669;42.678;23.332;2023-05-10T03:19:54;3.43;;;3.13;;
13208;SDS011;6669;42.678;23.332;2023-05-10T03:22:26;4.07;;;3.20;;
13208;SDS011;6669;42.678;23.332;2023-05-10T03:24:58;4.67;;;3.53;;
13208;SDS011;6669;42.678;23.332;2023-05-10T03:27:30;3.67;;;3.20;;
13208;SDS011;6669;42.678;23.332;2023-05-10T03:29:59;3.30;;;3.00;;
13208;SDS011;6669;42.678;23.332;2023-05-10T03:32:29;4.00;;;3.60;;
13208;SDS011;6669;42.678;23.332;2023-05-10T03:34:58;3.60;;;3.30;;
13208;SDS011;6669;42.678;23.332;2023-05-10T03:37:27;3.90;;;3.60;;
13208;SDS011;6669;42.678;23.332;2023-05-10T03:39:55;3.97;;;3.60;;
13208;SDS011;6669;42.678;23.332;2023-05-10T03:42:23;3.87;;;3.53;;
13208;SDS011;6669;42.678;23.332;2023-05-10T03:44:51;4.10;;;3.70;;
13208;SDS011;6669;42.678;23.332;2023-05-10T03:47:19;4.57;;;3.87;;
13208;SDS011;6669;42.678;23.332;2023-05-10T03:49:47;4.17;;;3.70;;
13208;SDS011;6669;42.678;23.332;2023-05-10T03:52:18;3.60;;;3.30;;
13208;SDS011;6669;42.678;23.332;2023-05-10T03:54:47;4.20;;;3.80;;
13208;SDS011;6669;42.678;23.332;2023-05-10T03:57:15;5.20;;;3.40;;
13208;SDS011;6669;42.678;23.332;2023-05-10T03:59:44;4.43;;;3.03;;
13208;SDS011;6669;42.678;23.332;2023-05-10T04:02:12;4.20;;;3.20;;
13208;SDS011;6669;42.678;23.332;2023-05-10T04:04:40;3.33;;;3.10;;
13208;SDS011;6669;42.678;23.332;2023-05-10T04:07:08;3.30;;;3.00;;
13208;SDS011;6669;42.678;23.332;2023-05-10T04:09:36;4.10;;;3.43;;
13208;SDS011;6669;42.678;23.332;2023-05-10T04:12:06;3.47;;;3.07;;
13208;SDS011;6669;42.678;23.332;2023-05-10T04:14:36;4.23;;;3.57;;
13208;SDS011;6669;42.678;23.332;2023-05-10T04:17:04;4.00;;;3.40;;
13208;SDS011;6669;42.678;23.332;2023-05-10T04:19:32;4.80;;;3.40;;
13208;SDS011;6669;42.678;23.332;2023-05-10T04:22:02;3.90;;;3.43;;
13208;SDS011;6669;42.678;23.332;2023-05-10T04:24:30;4.47;;;3.73;;
13208;SDS011;6669;42.678;23.332;2023-05-10T04:26:58;3.53;;;3.23;;
13208;SDS011;6669;42.678;23.332;2023-05-10T04:29:28;4.10;;;3.70;;
13208;SDS011;6669;42.678;23.332;2023-05-10T04:31:56;4.00;;;3.57;;
13208;SDS011;6669;42.678;23.332;2023-05-10T04:34:24;5.30;;;4.00;;
13208;SDS011;6669;42.678;23.332;2023-05-10T04:36:52;5.10;;;3.83;;
13208;SDS011;6669;42.678;23.332;2023-05-10T04:39:19;4.17;;;3.77;;
13208;SDS011;6669;42.678;23.332;2023-05-10T04:41:47;4.23;;;3.50;;
13208;SDS011;6669;42.678;23.332;2023-05-10T04:44:18;4.00;;;3.63;;
13208;SDS011;6669;42.678;23.332;2023-05-10T04:46:47;3.70;;;3.40;;
13208;SDS011;6669;42.678;23.332;2023-05-10T04:49:15;4.10;;;3.70;;
13208;SDS011;6669;42.678;23.332;2023-05-10T04:51:44;4.60;;;4.10;;
13208;SDS011;6669;42.678;23.332;2023-05-10T04:54:14;4.57;;;4.17;;
13208;SDS011;6669;42.678;23.332;2023-05-10T04:56:42;4.13;;;3.73;;
13208;SDS011;6669;42.678;23.332;2023-05-10T04:59:10;4.87;;;3.40;;
13208;SDS011;6669;42.678;23.332;2023-05-10T05:01:38;4.23;;;3.60;;
13208;SDS011;6669;42.678;23.332;2023-05-10T05:04:07;5.67;;;4.57;;
13208;SDS011;6669;42.678;23.332;2023-05-10T05:06:35;4.07;;;3.50;;
13208;SDS011;6669;42.678;23.332;2023-05-10T05:09:03;8.00;;;3.80;;
13208;SDS011;6669;42.678;23.332;2023-05-10T05:11:31;3.83;;;3.53;;
13208;SDS011;6669;42.678;23.332;2023-05-10T05:13:59;3.93;;;3.63;;
13208;SDS011;6669;42.678;23.332;2023-05-10T05:16:27;4.30;;;3.90;;
13208;SDS011;6669;42.678;23.332;2023-05-10T05:18:59;7.43;;;4.57;;
13208;SDS011;6669;42.678;23.332;2023-05-10T05:21:28;4.63;;;4.07;;
13208;SDS011;6669;42.678;23.332;2023-05-10T05:23:56;4.40;;;4.00;;
13208;SDS011;6669;42.678;23.332;2023-05-10T05:26:24;5.47;;;4.03;;
13208;SDS011;6669;42.678;23.332;2023-05-10T05:28:53;5.23;;;4.03;;
13208;SDS011;6669;42.678;23.332;2023-05-10T05:31:21;5.60;;;4.10;;
13208;SDS011;6669;42.678;23.332;2023-05-10T05:33:49;4.63;;;4.23;;
13208;SDS011;6669;42.678;23.332;2023-05-10T05:36:17;5.37;;;4.40;;
13208;SDS011;6669;42.678;23.332;2023-05-10T05:38:47;4.23;;;3.83;;
13208;SDS011;6669;42.678;23.332;2023-05-10T05:41:15;5.63;;;4.80;;
13208;SDS011;6669;42.678;23.332;2023-05-10T05:43:43;4.97;;;4.43;;
13208;SDS011;6669;42.678;23.332;2023-05-10T05:46:11;5.03;;;4.43;;
13208;SDS011;6669;42.678;23.332;2023-05-10T05:48:39;4.67;;;3.97;;
13208;SDS011;6669;42.678;23.332;2023-05-10T05:51:07;5.27;;;4.70;;
13208;SDS011;6669;42.678;23.332;2023-05-10T05:53:35;5.20;;;4.70;;
13208;SDS011;6669;42.678;23.332;2023-05-10T05:56:04;6.73;;;4.70;;
13208;SDS011;6669;42.678;23.332;2023-05-10T05:58:32;6.37;;;4.77;;
13208;SDS011;6669;42.678;23.332;2023-05-10T06:01:00;5.67;;;4.63;;
13208;SDS011;6669;42.678;23.332;2023-05-10T06:03:28;5.10;;;4.70;;
13208;SDS011;6669;42.678;23.332;2023-05-10T06:05:56;5.90;;;4.80;;
13208;SDS011;6669;42.678;23.332;2023-05-10T06:08:25;5.83;;;5.00;;
13208;SDS011;6669;42.678;23.332;2023-05-10T06:10:53;5.20;;;4.70;;
13208;SDS011;6669;42.678;23.332;2023-05-10T06:13:22;5.10;;;4.63;;
13208;SDS011;6669;42.678;23.332;2023-05-10T06:15:50;6.47;;;4.83;;
13208;SDS011;6669;42.678;23.332;2023-05-10T06:18:18;5.40;;;4.90;;
13208;SDS011;6669;42.678;23.332;2023-05-10T06:20:46;5.43;;;4.93;;
13208;SDS011;6669;42.678;23.332;2023-05-10T06:23:14;5.47;;;4.97;;
13208;SDS011;6669;42.678;23.332;2023-05-10T06:25:42;4.70;;;4.30;;
13208;SDS011;6669;42.678;23.332;2023-05-10T06:28:10;5.00;;;4.50;;
13208;SDS011;6669;42.678;23.332;2023-05-10T06:30:39;4.90;;;4.50;;
13208;SDS011;6669;42.678;23.332;2023-05-10T06:33:08;5.60;;;5.00;;
13208;SDS011;6669;42.678;23.332;2023-05-10T06:35:36;6.73;;;4.90;;
13208;SDS011;6669;42.678;23.332;2023-05-10T06:38:05;6.07;;;4.90;;
13208;SDS011;6669;42.678;23.332;2023-05-10T06:40:33;6.37;;;4.63;;
13208;SDS011;6669;42.678;23.332;2023-05-10T06:43:02;4.80;;;4.40;;
13208;SDS011;6669;42.678;23.332;2023-05-10T06:45:30;4.83;;;4.27;;
13208;SDS011;6669;42.678;23.332;2023-05-10T06:48:00;4.53;;;4.13;;
13208;SDS011;6669;42.678;23.332;2023-05-10T06:50:29;5.03;;;4.30;;
13208;SDS011;6669;42.678;23.332;2023-05-10T06:52:56;4.57;;;4.10;;
13208;SDS011;6669;42.678;23.332;2023-05-10T06:55:24;6.83;;;4.93;;
13208;SDS011;6669;42.678;23.332;2023-05-10T06:57:52;5.73;;;5.13;;
13208;SDS011;6669;42.678;23.332;2023-05-10T07:00:20;4.70;;;4.30;;
13208;SDS011;6669;42.678;23.332;2023-05-10T07:02:48;9.93;;;6.00;;
13208;SDS011;6669;42.678;23.332;2023-05-10T07:05:18;5.27;;;4.23;;
13208;SDS011;6669;42.678;23.332;2023-05-10T07:07:47;5.30;;;4.50;;
13208;SDS011;6669;42.678;23.332;2023-05-10T07:10:15;6.77;;;5.40;;
13208;SDS011;6669;42.678;23.332;2023-05-10T07:12:43;4.60;;;4.20;;
13208;SDS011;6669;42.678;23.332;2023-05-10T07:15:12;6.07;;;5.10;;
13208;SDS011;6669;42.678;23.332;2023-05-10T07:17:40;5.00;;;4.37;;
13208;SDS011;6669;42.678;23.332;2023-05-10T07:20:11;5.10;;;4.40;;
13208;SDS011;6669;42.678;23.332;2023-05-10T07:22:41;6.83;;;5.83;;
13208;SDS011;6669;42.678;23.332;2023-05-10T07:25:09;5.77;;;4.60;;
13208;SDS011;6669;42.678;23.332;2023-05-10T07:27:37;4.83;;;4.43;;
13208;SDS011;6669;42.678;23.332;2023-05-10T07:30:05;7.57;;;4.83;;
13208;SDS011;6669;42.678;23.332;2023-05-10T07:32:34;5.13;;;4.60;;
13208;SDS011;6669;42.678;23.332;2023-05-10T07:35:03;7.73;;;5.23;;
13208;SDS011;6669;42.678;23.332;2023-05-10T07:37:31;5.70;;;5.10;;
13208;SDS011;6669;42.678;23.332;2023-05-10T07:40:01;7.87;;;5.67;;
13208;SDS011;6669;42.678;23.332;2023-05-10T07:42:29;5.93;;;5.07;;
13208;SDS011;6669;42.678;23.332;2023-05-10T07:44:57;4.80;;;4.30;;
13208;SDS011;6669;42.678;23.332;2023-05-10T07:47:25;7.33;;;5.70;;
13208;SDS011;6669;42.678;23.332;2023-05-10T07:49:53;5.23;;;4.73;;
13208;SDS011;6669;42.678;23.332;2023-05-10T07:52:21;5.80;;;5.30;;
13208;SDS011;6669;42.678;23.332;2023-05-10T07:54:49;7.33;;;4.70;;
13208;SDS011;6669;42.678;23.332;2023-05-10T07:57:18;8.27;;;6.63;;
13208;SDS011;6669;42.678;23.332;2023-05-10T07:59:46;8.97;;;5.80;;
13208;SDS011;6669;42.678;23.332;2023-05-10T08:02:14;5.63;;;4.97;;
13208;SDS011;6669;42.678;23.332;2023-05-10T08:04:42;5.20;;;4.70;;
13208;SDS011;6669;42.678;23.332;2023-05-10T08:07:10;5.40;;;4.90;;
13208;SDS011;6669;42.678;23.332;2023-05-10T08:09:38;6.27;;;5.67;;
13208;SDS011;6669;42.678;23.332;2023-05-10T08:12:07;6.77;;;5.87;;
13208;SDS011;6669;42.678;23.332;2023-05-10T08:14:36;7.17;;;6.10;;
13208;SDS011;6669;42.678;23.332;2023-05-10T08:17:04;7.90;;;5.57;;
13208;SDS011;6669;42.678;23.332;2023-05-10T08:19:32;9.27;;;5.53;;
13208;SDS011;6669;42.678;23.332;2023-05-10T08:22:00;9.67;;;7.20;;
13208;SDS011;6669;42.678;23.332;2023-05-10T08:24:28;8.07;;;6.13;;
13208;SDS011;6669;42.678;23.332;2023-05-10T08:26:56;5.53;;;5.03;;
13208;SDS011;6669;42.678;23.332;2023-05-10T08:29:24;7.30;;;6.03;;
13208;SDS011;6669;42.678;23.332;2023-05-10T08:31:57;6.87;;;5.67;;
13208;SDS011;6669;42.678;23.332;2023-05-10T08:34:24;5.37;;;4.87;;
13208;SDS011;6669;42.678;23.332;2023-05-10T08:36:53;6.53;;;5.87;;
13208;SDS011;6669;42.678;23.332;2023-05-10T08:39:21;6.13;;;5.63;;
13208;SDS011;6669;42.678;23.332;2023-05-10T08:41:58;6.17;;;5.67;;
13208;SDS011;6669;42.678;23.332;2023-05-10T08:44:29;5.87;;;5.27;;
13208;SDS011;6669;42.678;23.332;2023-05-10T08:47:00;5.23;;;4.83;;
13208;SDS011;6669;42.678;23.332;2023-05-10T08:49:32;5.97;;;5.37;;
13208;SDS011;6669;42.678;23.332;2023-05-10T08:52:02;5.80;;;5.20;;
13208;SDS011;6669;42.678;23.332;2023-05-10T08:54:32;6.07;;;5.47;;
13208;SDS011;6669;42.678;23.332;2023-05-10T08:57:00;7.70;;;5.90;;
13208;SDS011;6669;42.678;23.332;2023-05-10T08:59:29;5.80;;;5.20;;
13208;SDS011;6669;42.678;23.332;2023-05-10T09:01:57;6.90;;;5.23;;
13208;SDS011;6669;42.678;23.332;2023-05-10T09:04:27;7.80;;;5.53;;
13208;SDS011;6669;42.678;23.332;2023-05-10T09:06:56;5.67;;;5.17;;
13208;SDS011;6669;42.678;23.332;2023-05-10T09:09:25;5.97;;;5.47;;
13208;SDS011;6669;42.678;23.332;2023-05-10T09:11:53;6.43;;;5.83;;
13208;SDS011;6669;42.678;23.332;2023-05-10T09:14:21;6.60;;;6.00;;
13208;SDS011;6669;42.678;23.332;2023-05-10T09:16:52;5.90;;;5.40;;
13208;SDS011;6669;42.678;23.332;2023-05-10T09:19:21;5.83;;;5.23;;
13208;SDS011;6669;42.678;23.332;2023-05-10T09:21:51;8.80;;;6.97;;
13208;SDS011;6669;42.678;23.332;2023-05-10T09:24:18;6.33;;;5.83;;
13208;SDS011;6669;42.678;23.332;2023-05-10T09:26:47;5.97;;;4.90;;
13208;SDS011;6669;42.678;23.332;2023-05-10T09:29:15;6.10;;;5.60;;
13208;SDS011;6669;42.678;23.332;2023-05-10T09:31:44;6.00;;;5.40;;
13208;SDS011;6669;42.678;23.332;2023-05-10T09:34:17;6.67;;;6.07;;
13208;SDS011;6669;42.678;23.332;2023-05-10T09:36:54;6.30;;;5.70;;
13208;SDS011;6669;42.678;23.332;2023-05-10T09:39:29;6.63;;;5.38;;
13208;SDS011;6669;42.678;23.332;2023-05-10T09:41:59;5.65;;;5.10;;
13208;SDS011;6669;42.678;23.332;2023-05-10T09:44:30;7.03;;;5.97;;
13208;SDS011;6669;42.678;23.332;2023-05-10T09:46:59;7.90;;;6.23;;
13208;SDS011;6669;42.678;23.332;2023-05-10T09:49:27;6.60;;;5.97;;
13208;SDS011;6669;42.678;23.332;2023-05-10T09:52:03;6.15;;;5.55;;
13208;SDS011;6669;42.678;23.332;2023-05-10T09:54:32;5.53;;;4.85;;
13208;SDS011;6669;42.678;23.332;2023-05-10T09:57:01;5.07;;;4.57;;
13208;SDS011;6669;42.678;23.332;2023-05-10T09:59:29;6.37;;;5.20;;
13208;SDS011;6669;42.678;23.332;2023-05-10T10:01:58;5.60;;;5.10;;
13208;SDS011;6669;42.678;23.332;2023-05-10T10:04:27;5.38;;;4.88;;
13208;SDS011;6669;42.678;23.332;2023-05-10T10:06:59;7.03;;;5.55;;
13208;SDS011;6669;42.678;23.332;2023-05-10T10:09:30;5.15;;;4.70;;
13208;SDS011;6669;42.678;23.332;2023-05-10T10:11:58;5.07;;;4.67;;
13208;SDS011;6669;42.678;23.332;2023-05-10T10:14:28;7.28;;;5.07;;
13208;SDS011;6669;42.678;23.332;2023-05-10T10:16:57;6.77;;;5.30;;
13208;SDS011;6669;42.678;23.332;2023-05-10T10:19:30;6.17;;;5.37;;
13208;SDS011;6669;42.678;23.332;2023-05-10T10:22:01;6.73;;;4.97;;
13208;SDS011;6669;42.678;23.332;2023-05-10T10:24:31;5.30;;;4.80;;
13208;SDS011;6669;42.678;23.332;2023-05-10T10:27:01;5.50;;;5.00;;
13208;SDS011;6669;42.678;23.332;2023-05-10T10:29:36;5.07;;;4.60;;
13208;SDS011;6669;42.678;23.332;2023-05-10T10:32:10;5.30;;;4.80;;
13208;SDS011;6669;42.678;23.332;2023-05-10T10:34:53;5.07;;;4.35;;
13208;SDS011;6669;42.678;23.332;2023-05-10T10:37:22;5.23;;;4.33;;
13208;SDS011;6669;42.678;23.332;2023-05-10T10:39:53;5.82;;;4.85;;
13208;SDS011;6669;42.678;23.332;2023-05-10T10:45:13;4.63;;;4.10;;
13208;SDS011;6669;42.678;23.332;2023-05-10T10:47:41;5.93;;;4.10;;
13208;SDS011;6669;42.678;23.332;2023-05-10T10:50:10;4.90;;;4.35;;
13208;SDS011;6669;42.678;23.332;2023-05-10T10:52:39;5.65;;;4.43;;
13208;SDS011;6669;42.678;23.332;2023-05-10T10:55:10;4.47;;;4.07;;
13208;SDS011;6669;42.678;23.332;2023-05-10T10:57:44;4.90;;;4.30;;
13208;SDS011;6669;42.678;23.332;2023-05-10T11:00:23;4.47;;;4.05;;
13208;SDS011;6669;42.678;23.332;2023-05-10T11:02:53;4.80;;;4.38;;
13208;SDS011;6669;42.678;23.332;2023-05-10T11:05:24;5.55;;;3.67;;
13208;SDS011;6669;42.678;23.332;2023-05-10T11:08:01;5.60;;;4.85;;
13208;SDS011;6669;42.678;23.332;2023-05-10T11:10:37;5.35;;;3.90;;
13208;SDS011;6669;42.678;23.332;2023-05-10T11:13:06;6.50;;;4.13;;
13208;SDS011;6669;42.678;23.332;2023-05-10T11:15:35;5.20;;;4.57;;
13208;SDS011;6669;42.678;23.332;2023-05-10T11:18:17;4.38;;;3.97;;
13208;SDS011;6669;42.678;23.332;2023-05-10T11:20:50;4.80;;;4.05;;
13208;SDS011;6669;42.678;23.332;2023-05-10T11:23:18;5.57;;;4.40;;
13208;SDS011;6669;42.678;23.332;2023-05-10T11:25:48;5.22;;;4.18;;
13208;SDS011;6669;42.678;23.332;2023-05-10T11:28:17;6.45;;;3.75;;
13208;SDS011;6669;42.678;23.332;2023-05-10T11:30:46;5.50;;;3.97;;
13208;SDS011;6669;42.678;23.332;2023-05-10T11:33:15;4.68;;;4.20;;
13208;SDS011;6669;42.678;23.332;2023-05-10T11:35:45;4.68;;;4.22;;
13208;SDS011;6669;42.678;23.332;2023-05-10T11:38:14;5.18;;;4.45;;
13208;SDS011;6669;42.678;23.332;2023-05-10T11:40:42;6.05;;;4.50;;
13208;SDS011;6669;42.678;23.332;2023-05-10T11:43:12;5.63;;;4.88;;
13208;SDS011;6669;42.678;23.332;2023-05-10T11:45:40;4.90;;;4.22;;
13208;SDS011;6669;42.678;23.332;2023-05-10T11:48:08;4.63;;;3.85;;
13208;SDS011;6669;42.678;23.332;2023-05-10T11:50:37;4.25;;;3.78;;
13208;SDS011;6669;42.678;23.332;2023-05-10T11:53:05;4.20;;;3.80;;
13208;SDS011;6669;42.678;23.332;2023-05-10T11:55:35;4.30;;;3.90;;
13208;SDS011;6669;42.678;23.332;2023-05-10T11:58:03;5.73;;;3.83;;
13208;SDS011;6669;42.678;23.332;2023-05-10T12:00:33;5.43;;;4.20;;
13208;SDS011;6669;42.678;23.332;2023-05-10T12:03:01;6.90;;;3.85;;
13208;SDS011;6669;42.678;23.332;2023-05-10T12:05:31;4.63;;;4.20;;
13208;SDS011;6669;42.678;23.332;2023-05-10T12:08:10;5.03;;;4.50;;
13208;SDS011;6669;42.678;23.332;2023-05-10T12:10:39;4.90;;;4.38;;
13208;SDS011;6669;42.678;23.332;2023-05-10T12:13:10;4.55;;;4.13;;
13208;SDS011;6669;42.678;23.332;2023-05-10T12:15:42;4.68;;;4.28;;
13208;SDS011;6669;42.678;23.332;2023-05-10T12:18:10;5.65;;;4.60;;
13208;SDS011;6669;42.678;23.332;2023-05-10T12:20:39;4.90;;;4.40;;
13208;SDS011;6669;42.678;23.332;2023-05-10T12:23:08;5.22;;;4.50;;
13208;SDS011;6669;42.678;23.332;2023-05-10T12:25:37;6.28;;;4.28;;
13208;SDS011;6669;42.678;23.332;2023-05-10T12:28:06;4.47;;;4.07;;
13208;SDS011;6669;42.678;23.332;2023-05-10T12:30:37;4.70;;;4.30;;
13208;SDS011;6669;42.678;23.332;2023-05-10T12:33:10;6.03;;;4.82;;
13208;SDS011;6669;42.678;23.332;2023-05-10T12:35:45;6.85;;;5.10;;
13208;SDS011;6669;42.678;23.332;2023-05-10T12:38:24;5.82;;;4.63;;
13208;SDS011;6669;42.678;23.332;2023-05-10T12:40:57;7.13;;;4.30;;
13208;SDS011;6669;42.678;23.332;2023-05-10T12:43:26;5.07;;;4.57;;
13208;SDS011;6669;42.678;23.332;2023-05-10T12:45:54;7.43;;;4.18;;
13208;SDS011;6669;42.678;23.332;2023-05-10T12:48:24;4.20;;;3.78;;
13208;SDS011;6669;42.678;23.332;2023-05-10T12:50:52;4.57;;;4.18;;
13208;SDS011;6669;42.678;23.332;2023-05-10T12:53:20;4.47;;;4.00;;
13208;SDS011;6669;42.678;23.332;2023-05-10T12:55:48;4.28;;;3.88;;
13208;SDS011;6669;42.678;23.332;2023-05-10T12:58:16;6.78;;;4.13;;
13208;SDS011;6669;42.678;23.332;2023-05-10T13:01:01;4.88;;;4.47;;
13208;SDS011;6669;42.678;23.332;2023-05-10T13:03:31;4.63;;;4.22;;
13208;SDS011;6669;42.678;23.332;2023-05-10T13:05:59;5.20;;;4.15;;
13208;SDS011;6669;42.678;23.332;2023-05-10T13:08:27;5.00;;;4.60;;
13208;SDS011;6669;42.678;23.332;2023-05-10T13:11:00;8.75;;;5.80;;
13208;SDS011;6669;42.678;23.332;2023-05-10T13:13:28;5.28;;;4.78;;
13208;SDS011;6669;42.678;23.332;2023-05-10T13:15:56;4.75;;;4.25;;
13208;SDS011;6669;42.678;23.332;2023-05-10T13:18:24;4.85;;;4.28;;
13208;SDS011;6669;42.678;23.332;2023-05-10T13:20:54;5.82;;;4.63;;
13208;SDS011;6669;42.678;23.332;2023-05-10T13:23:23;7.03;;;5.67;;
13208;SDS011;6669;42.678;23.332;2023-05-10T13:25:51;5.82;;;4.75;;
13208;SDS011;6669;42.678;23.332;2023-05-10T13:28:19;5.93;;;4.72;;
13208;SDS011;6669;42.678;23.332;2023-05-10T13:30:47;4.32;;;3.92;;
13208;SDS011;6669;42.678;23.332;2023-05-10T13:33:15;4.85;;;3.90;;
13208;SDS011;6669;42.678;23.332;2023-05-10T13:35:43;5.57;;;4.03;;
13208;SDS011;6669;42.678;23.332;2023-05-10T13:38:13;4.03;;;3.70;;
13208;SDS011;6669;42.678;23.332;2023-05-10T13:40:41;4.40;;;4.00;;
13208;SDS011;6669;42.678;23.332;2023-05-10T13:43:09;4.25;;;3.85;;
13208;SDS011;6669;42.678;23.332;2023-05-10T13:45:37;5.20;;;4.13;;
13208;SDS011;6669;42.678;23.332;2023-05-10T13:48:05;4.88;;;3.90;;
13208;SDS011;6669;42.678;23.332;2023-05-10T13:50:33;3.83;;;3.42;;
13208;SDS011;6669;42.678;23.332;2023-05-10T13:53:01;3.85;;;3.55;;
13208;SDS011;6669;42.678;23.332;2023-05-10T13:58:53;4.75;;;4.25;;
13208;SDS011;6669;42.678;23.332;2023-05-10T14:01:21;4.00;;;3.60;;
13208;SDS011;6669;42.678;23.332;2023-05-10T14:03:50;4.18;;;3.83;;
13208;SDS011;6669;42.678;23.332;2023-05-10T14:06:18;4.88;;;4.35;;
13208;SDS011;6669;42.678;23.332;2023-05-10T14:08:46;4.53;;;4.13;;
13208;SDS011;6669;42.678;23.332;2023-05-10T14:11:14;4.78;;;4.22;;
13208;SDS011;6669;42.678;23.332;2023-05-10T14:13:42;5.55;;;4.10;;
13208;SDS011;6669;42.678;23.332;2023-05-10T14:16:11;4.70;;;4.25;;
13208;SDS011;6669;42.678;23.332;2023-05-10T14:18:41;5.57;;;4.17;;
13208;SDS011;6669;42.678;23.332;2023-05-10T14:21:09;4.57;;;4.15;;
13208;SDS011;6669;42.678;23.332;2023-05-10T14:23:37;5.00;;;4.50;;
13208;SDS011;6669;42.678;23.332;2023-05-10T14:26:05;5.50;;;3.78;;
13208;SDS011;6669;42.678;23.332;2023-05-10T14:28:33;7.70;;;4.47;;
13208;SDS011;6669;42.678;23.332;2023-05-10T14:31:01;4.10;;;3.80;;
13208;SDS011;6669;42.678;23.332;2023-05-10T14:33:30;7.53;;;4.00;;
13208;SDS011;6669;42.678;23.332;2023-05-10T14:35:58;4.97;;;4.13;;
13208;SDS011;6669;42.678;23.332;2023-05-10T14:38:31;4.77;;;4.37;;
13208;SDS011;6669;42.678;23.332;2023-05-10T14:40:59;4.70;;;3.80;;
13208;SDS011;6669;42.678;23.332;2023-05-10T14:43:27;6.45;;;4.10;;
13208;SDS011;6669;42.678;23.332;2023-05-10T14:45:55;4.32;;;3.92;;
13208;SDS011;6669;42.678;23.332;2023-05-10T14:48:23;5.05;;;4.05;;
13208;SDS011;6669;42.678;23.332;2023-05-10T14:50:52;5.80;;;4.50;;
13208;SDS011;6669;42.678;23.332;2023-05-10T14:53:35;4.55;;;4.10;;
13208;SDS011;6669;42.678;23.332;2023-05-10T14:56:03;4.57;;;4.17;;
13208;SDS011;6669;42.678;23.332;2023-05-10T14:58:31;4.47;;;4.07;;
13208;SDS011;6669;42.678;23.332;2023-05-10T15:01:00;4.60;;;4.13;;
13208;SDS011;6669;42.678;23.332;2023-05-10T15:03:28;4.40;;;4.00;;
13208;SDS011;6669;42.678;23.332;2023-05-10T15:05:58;5.53;;;5.03;;
13208;SDS011;6669;42.678;23.332;2023-05-10T15:08:26;5.20;;;4.18;;